createdAt,value
2023-02-24T00:02:20.169Z,8.37
2023-02-24T00:04:52.036Z,8.38
2023-02-24T00:07:23.045Z,8.43
2023-02-24T00:09:55.685Z,8.43
2023-02-24T00:12:25.769Z,8.43
2023-02-24T00:14:55.780Z,8.44
2023-02-24T00:17:27.908Z,8.50
2023-02-24T00:19:58.086Z,8.52
2023-02-24T00:22:28.546Z,8.43
2023-02-24T00:25:01.431Z,8.37
2023-02-24T00:27:32.171Z,8.37
2023-02-24T00:30:02.206Z,8.29
2023-02-24T00:32:32.368Z,8.34
2023-02-24T00:35:02.499Z,8.40
2023-02-24T00:37:33.125Z,8.48
2023-02-24T00:40:11.381Z,8.53
2023-02-24T00:42:42.744Z,8.59
2023-02-24T00:45:16.782Z,8.61
2023-02-24T00:47:46.791Z,8.66
2023-02-24T00:50:17.403Z,8.71
2023-02-24T00:52:47.357Z,8.68
2023-02-24T00:55:22.363Z,8.65
2023-02-24T00:57:53.157Z,8.59
2023-02-24T01:00:25.495Z,8.61
2023-02-24T01:02:59.517Z,8.70
2023-02-24T01:05:30.057Z,8.70
2023-02-24T01:08:00.663Z,8.69
2023-02-24T01:10:36.076Z,8.67
2023-02-24T01:13:03.722Z,8.60
2023-02-24T01:15:33.752Z,8.54
2023-02-24T01:18:03.730Z,8.33
2023-02-24T01:20:34.616Z,8.31
2023-02-24T01:23:04.611Z,8.24
2023-02-24T01:25:37.296Z,8.24
2023-02-24T01:28:11.159Z,8.25
2023-02-24T01:30:43.131Z,8.24
2023-02-24T01:33:14.753Z,8.29
2023-02-24T01:35:45.066Z,8.45
2023-02-24T01:38:15.129Z,8.48
2023-02-24T01:40:50.510Z,8.55
2023-02-24T01:43:22.147Z,8.48
2023-02-24T01:45:56.244Z,8.53
2023-02-24T01:48:28.186Z,8.43
2023-02-24T01:50:58.596Z,8.63
2023-02-24T01:53:28.602Z,8.62
2023-02-24T01:56:01.166Z,8.62
2023-02-24T01:58:33.696Z,8.63
2023-02-24T02:01:08.889Z,8.57
2023-02-24T02:03:44.663Z,8.40
2023-02-24T02:06:18.434Z,8.39
2023-02-24T02:08:48.816Z,8.45
2023-02-24T02:11:22.753Z,8.21
2023-02-24T02:13:57.024Z,8.04
2023-02-24T02:17:02.735Z,8.04
2023-02-24T02:20:15.857Z,8.04
2023-02-24T02:23:22.461Z,8.08
2023-02-24T02:26:22.406Z,8.09
2023-02-24T02:29:41.625Z,8.23
2023-02-24T02:32:53.241Z,8.21
2023-02-24T02:35:36.894Z,8.22
2023-02-24T02:38:17.764Z,8.21
2023-02-24T02:41:01.347Z,8.30
2023-02-24T02:43:40.086Z,8.30
2023-02-24T02:46:15.966Z,8.30
2023-02-24T02:48:56.897Z,8.23
2023-02-24T02:51:38.908Z,8.23
2023-02-24T02:54:18.700Z,8.16
2023-02-24T02:56:59.542Z,8.15
2023-02-24T02:59:35.182Z,8.16
2023-02-24T03:02:15.145Z,8.07
2023-02-24T03:04:56.062Z,8.11
2023-02-24T03:07:37.669Z,8.14
2023-02-24T03:10:17.736Z,8.05
2023-02-24T03:12:53.548Z,7.98
2023-02-24T03:15:30.345Z,7.88
2023-02-24T03:18:10.617Z,7.74
2023-02-24T03:20:49.507Z,7.64
2023-02-24T03:23:27.248Z,7.80
2023-02-24T03:26:07.858Z,7.87
2023-02-24T03:28:45.630Z,7.89
2023-02-24T03:31:27.798Z,8.03
2023-02-24T03:34:07.663Z,8.16
2023-02-24T03:36:38.857Z,8.25
2023-02-24T03:39:12.737Z,8.17
2023-02-24T03:41:58.878Z,8.11
2023-02-24T03:44:31.703Z,8.13
2023-02-24T03:47:04.385Z,8.20
2023-02-24T03:49:38.373Z,8.28
2023-02-24T03:52:24.505Z,8.38
2023-02-24T03:55:33.310Z,8.52
2023-02-24T03:58:21.164Z,8.45
2023-02-24T04:01:05.730Z,8.58
2023-02-24T04:03:51.998Z,8.53
2023-02-24T04:06:49.825Z,8.59
2023-02-24T04:09:33.357Z,8.64
2023-02-24T04:12:24.061Z,8.67
2023-02-24T04:15:08.699Z,8.72
2023-02-24T04:17:47.135Z,8.64
2023-02-24T04:20:22.903Z,8.74
2023-02-24T04:23:08.794Z,8.66
2023-02-24T04:25:41.767Z,8.69
2023-02-24T04:28:19.031Z,8.73
2023-02-24T04:30:55.712Z,8.83
2023-02-24T04:33:27.377Z,8.65
2023-02-24T04:35:57.474Z,8.63
2023-02-24T04:38:28.854Z,8.58
2023-02-24T04:40:58.851Z,8.51
2023-02-24T04:43:31.531Z,8.52
2023-02-24T04:46:07.650Z,8.52
2023-02-24T04:48:39.119Z,8.49
2023-02-24T04:51:09.255Z,8.50
2023-02-24T04:53:39.283Z,8.55
2023-02-24T04:56:11.169Z,8.52
2023-02-24T04:58:46.451Z,8.54
2023-02-24T05:01:16.951Z,8.54
2023-02-24T05:03:47.785Z,8.26
2023-02-24T05:06:20.850Z,8.42
2023-02-24T05:08:52.539Z,8.51
2023-02-24T05:11:23.282Z,8.39
2023-02-24T05:13:57.198Z,8.44
2023-02-24T05:16:28.883Z,8.31
2023-02-24T05:19:11.223Z,8.35
2023-02-24T05:21:41.922Z,8.46
2023-02-24T05:24:17.222Z,8.47
2023-02-24T05:26:47.345Z,8.39
2023-02-24T05:29:20.041Z,8.23
2023-02-24T05:31:50.187Z,8.16
2023-02-24T05:34:20.232Z,8.15
2023-02-24T05:36:50.313Z,8.15
2023-02-24T05:39:21.921Z,8.27
2023-02-24T05:41:54.782Z,8.23
2023-02-24T05:44:31.804Z,8.24
2023-02-24T05:47:02.135Z,8.15
2023-02-24T05:49:38.898Z,8.09
2023-02-24T05:52:11.168Z,8.23
2023-02-24T05:54:45.347Z,8.28
2023-02-24T05:57:21.124Z,8.32
2023-02-24T05:59:55.976Z,8.38
2023-02-24T06:02:27.898Z,8.38
2023-02-24T06:05:00.972Z,8.33
2023-02-24T06:07:34.588Z,8.28
2023-02-24T06:10:10.320Z,8.24
2023-02-24T06:12:40.304Z,8.14
2023-02-24T06:15:14.004Z,8.19
2023-02-24T06:17:45.170Z,8.26
2023-02-24T06:20:17.161Z,8.36
2023-02-24T06:22:47.146Z,8.32
2023-02-24T06:25:18.611Z,8.34
2023-02-24T06:27:53.173Z,8.46
2023-02-24T06:30:27.571Z,8.59
2023-02-24T06:32:57.657Z,8.60
2023-02-24T06:35:27.837Z,8.43
2023-02-24T06:37:58.455Z,8.33
2023-02-24T06:40:28.419Z,8.29
2023-02-24T06:42:58.580Z,8.32
2023-02-24T06:45:32.216Z,8.14
2023-02-24T06:48:03.573Z,8.19
2023-02-24T06:50:33.621Z,8.16
2023-02-24T06:53:03.619Z,8.15
2023-02-24T06:55:35.616Z,8.28
2023-02-24T06:58:06.350Z,8.42
2023-02-24T07:00:43.033Z,8.53
2023-02-24T07:03:19.592Z,8.33
2023-02-24T07:05:54.518Z,8.15
2023-02-24T07:08:27.577Z,8.37
2023-02-24T07:11:00.008Z,8.41
2023-02-24T07:13:31.466Z,8.39
2023-02-24T07:16:07.349Z,8.58
2023-02-24T07:18:40.826Z,8.66
2023-02-24T07:21:12.852Z,8.88
2023-02-24T07:23:44.071Z,9.06
2023-02-24T07:26:17.084Z,9.20
2023-02-24T07:28:49.258Z,9.27
2023-02-24T07:31:26.024Z,9.21
2023-02-24T07:33:58.488Z,9.10
2023-02-24T07:36:30.515Z,9.15
2023-02-24T07:39:03.603Z,9.16
2023-02-24T07:41:33.637Z,8.99
2023-02-24T07:44:05.973Z,9.10
2023-02-24T07:46:38.626Z,9.29
2023-02-24T07:49:09.753Z,9.43
2023-02-24T07:51:39.730Z,9.44
2023-02-24T07:54:11.445Z,9.45
2023-02-24T07:56:46.195Z,9.44
2023-02-24T07:59:19.694Z,9.37
2023-02-24T08:01:55.900Z,9.40
2023-02-24T08:04:30.247Z,9.40
2023-02-24T08:07:03.372Z,9.41
2023-02-24T08:10:03.567Z,9.25
2023-02-24T08:12:35.244Z,9.37
2023-02-24T08:15:17.485Z,9.40
2023-02-24T08:17:50.543Z,9.55
2023-02-24T08:20:36.144Z,9.39
2023-02-24T08:23:08.736Z,9.05
2023-02-24T08:25:38.799Z,8.91
2023-02-24T08:28:11.832Z,8.69
2023-02-24T08:30:46.110Z,8.94
2023-02-24T08:33:28.440Z,8.94
2023-02-24T08:36:02.119Z,8.88
2023-02-24T08:38:44.769Z,8.72
2023-02-24T08:41:18.627Z,8.52
2023-02-24T08:43:50.424Z,8.44
2023-02-24T08:46:26.837Z,8.59
2023-02-24T08:49:02.821Z,8.62
2023-02-24T08:51:36.422Z,8.34
2023-02-24T08:54:11.386Z,8.44
2023-02-24T08:56:44.205Z,8.56
2023-02-24T08:59:29.453Z,8.83
2023-02-24T09:02:14.359Z,9.18
2023-02-24T09:04:48.236Z,9.60
2023-02-24T09:07:20.932Z,9.87
2023-02-24T09:09:56.357Z,10.30
2023-02-24T09:12:29.366Z,10.71
2023-02-24T09:15:04.768Z,11.16
2023-02-24T09:17:50.200Z,11.52
2023-02-24T09:20:38.968Z,12.41
2023-02-24T09:23:09.745Z,13.06
2023-02-24T09:25:49.518Z,13.32
2023-02-24T09:28:24.718Z,13.27
2023-02-24T09:30:57.382Z,13.33
2023-02-24T09:33:38.992Z,12.94
2023-02-24T09:36:20.348Z,12.51
2023-02-24T09:39:06.228Z,11.56
2023-02-24T09:41:53.870Z,11.64
2023-02-24T09:44:34.112Z,12.16
2023-02-24T09:47:19.977Z,12.18
2023-02-24T09:49:59.210Z,12.46
2023-02-24T09:52:43.597Z,12.72
2023-02-24T09:55:25.197Z,12.55
2023-02-24T09:58:16.271Z,12.48
2023-02-24T10:00:58.504Z,11.58
2023-02-24T10:03:48.413Z,11.64
2023-02-24T10:06:26.880Z,11.70
2023-02-24T10:09:15.071Z,11.63
2023-02-24T10:11:56.206Z,11.77
2023-02-24T10:14:43.734Z,11.62
2023-02-24T10:17:40.345Z,11.37
2023-02-24T10:20:31.176Z,10.91
2023-02-24T10:23:10.053Z,11.03
2023-02-24T10:25:56.560Z,11.24
2023-02-24T10:28:39.096Z,11.36
2023-02-24T10:31:25.639Z,11.23
2023-02-24T10:34:06.209Z,11.31
2023-02-24T10:36:39.234Z,11.62
2023-02-24T10:39:20.547Z,12.03
2023-02-24T10:41:57.681Z,12.21
2023-02-24T10:44:36.352Z,12.06
2023-02-24T10:47:17.861Z,12.18
2023-02-24T10:49:59.545Z,12.12
2023-02-24T10:52:51.067Z,12.49
2023-02-24T10:55:50.762Z,12.41
2023-02-24T10:58:38.183Z,11.65
2023-02-24T11:01:18.686Z,11.29
2023-02-24T11:04:22.666Z,10.81
2023-02-24T11:06:57.950Z,10.54
2023-02-24T11:09:43.960Z,10.62
2023-02-24T11:12:34.985Z,10.40
2023-02-24T11:15:44.419Z,10.61
2023-02-24T11:18:23.229Z,10.49
2023-02-24T11:20:58.317Z,10.89
2023-02-24T11:23:31.289Z,10.70
2023-02-24T11:26:05.369Z,10.69
2023-02-24T11:29:01.107Z,10.65
2023-02-24T11:31:52.407Z,10.59
2023-02-24T11:34:31.140Z,10.31
2023-02-24T11:37:21.131Z,10.25
2023-02-24T11:40:01.633Z,10.23
2023-02-24T11:42:43.792Z,10.15
2023-02-24T11:45:29.880Z,9.89
2023-02-24T11:48:15.182Z,9.97
2023-02-24T11:50:50.006Z,10.20
2023-02-24T11:53:35.083Z,10.07
2023-02-24T11:56:13.441Z,9.94
2023-02-24T11:58:52.025Z,9.92
2023-02-24T12:01:30.512Z,9.91
2023-02-24T12:04:21.968Z,10.07
2023-02-24T12:07:00.381Z,10.04
2023-02-24T12:09:37.146Z,10.70
2023-02-24T12:12:16.637Z,11.25
2023-02-24T12:14:56.608Z,11.81
2023-02-24T12:17:44.422Z,12.78
2023-02-24T12:20:28.542Z,13.83
2023-02-24T12:23:04.014Z,14.52
2023-02-24T12:25:46.860Z,15.00
2023-02-24T12:28:29.737Z,14.70
2023-02-24T12:31:19.790Z,14.89
2023-02-24T12:34:08.672Z,15.22
2023-02-24T12:37:19.750Z,14.88
2023-02-24T12:40:05.834Z,15.70
2023-02-24T12:42:46.890Z,15.90
2023-02-24T12:45:28.906Z,15.44
2023-02-24T12:48:22.705Z,15.24
2023-02-24T12:51:03.041Z,15.49
2023-02-24T12:53:46.666Z,15.80
2023-02-24T12:56:24.453Z,14.62
2023-02-24T12:59:05.469Z,14.37
2023-02-24T13:01:49.808Z,13.93
2023-02-24T13:04:40.165Z,13.12
2023-02-24T13:07:37.489Z,12.84
2023-02-24T13:10:31.119Z,12.80
2023-02-24T13:13:14.105Z,12.43
2023-02-24T13:15:54.700Z,12.44
2023-02-24T13:18:31.093Z,12.25
2023-02-24T13:21:24.759Z,12.01
2023-02-24T13:24:02.483Z,12.15
2023-02-24T13:26:35.788Z,12.35
2023-02-24T13:29:14.592Z,12.57
2023-02-24T13:31:48.714Z,12.69
2023-02-24T13:34:35.343Z,12.58
2023-02-24T13:37:06.256Z,12.43
2023-02-24T13:39:41.479Z,12.51
2023-02-24T13:42:26.853Z,12.45
2023-02-24T13:45:06.558Z,12.41
2023-02-24T13:48:13.713Z,12.16
2023-02-24T13:51:05.072Z,12.19
2023-02-24T13:53:58.879Z,12.03
2023-02-24T13:56:45.472Z,12.06
2023-02-24T13:59:47.731Z,12.17
2023-02-24T14:02:20.745Z,11.83
2023-02-24T14:04:54.771Z,11.85
2023-02-24T14:07:29.561Z,12.13
2023-02-24T14:10:05.263Z,12.15
2023-02-24T14:12:38.717Z,12.08
2023-02-24T14:15:20.240Z,11.73
2023-02-24T14:18:00.879Z,11.86
2023-02-24T14:20:35.132Z,11.36
2023-02-24T14:23:05.296Z,11.34
2023-02-24T14:25:41.681Z,11.32
2023-02-24T14:28:25.286Z,11.28
2023-02-24T14:31:01.688Z,11.19
2023-02-24T14:33:36.779Z,11.07
2023-02-24T14:36:16.258Z,10.83
2023-02-24T14:38:48.125Z,10.54
2023-02-24T14:41:25.124Z,10.26
2023-02-24T14:43:56.611Z,10.24
2023-02-24T14:46:29.443Z,10.21
2023-02-24T14:48:59.505Z,9.96
2023-02-24T14:51:34.967Z,9.85
2023-02-24T14:54:12.113Z,9.95
2023-02-24T14:56:42.353Z,9.82
2023-02-24T14:59:28.301Z,9.73
2023-02-24T15:02:02.897Z,9.56
2023-02-24T15:04:42.543Z,9.55
2023-02-24T15:07:21.730Z,9.44
2023-02-24T15:09:54.074Z,9.50
2023-02-24T15:12:32.243Z,9.64
2023-02-24T15:15:06.899Z,9.62
2023-02-24T15:17:43.640Z,9.62
2023-02-24T15:20:31.352Z,9.63
2023-02-24T15:23:02.122Z,9.53
2023-02-24T15:25:44.640Z,9.44
2023-02-24T15:28:31.003Z,9.66
2023-02-24T15:31:10.911Z,9.48
2023-02-24T15:33:47.086Z,9.59
2023-02-24T15:36:23.973Z,9.57
2023-02-24T15:38:57.892Z,9.56
2023-02-24T15:41:29.083Z,9.40
2023-02-24T15:43:59.097Z,9.52
2023-02-24T15:46:33.389Z,9.51
2023-02-24T15:49:08.531Z,9.40
2023-02-24T15:51:42.608Z,9.41
2023-02-24T15:54:17.824Z,9.45
2023-02-24T15:56:49.567Z,9.55
2023-02-24T15:59:22.117Z,9.49
2023-02-24T16:01:52.491Z,9.37
2023-02-24T16:04:27.586Z,9.21
2023-02-24T16:07:00.244Z,8.90
2023-02-24T16:09:38.171Z,8.58
2023-02-24T16:12:14.673Z,8.33
2023-02-24T16:14:45.381Z,8.15
2023-02-24T16:17:30.816Z,8.09
2023-02-24T16:20:08.606Z,8.00
2023-02-24T16:22:39.108Z,7.98
2023-02-24T16:25:10.818Z,7.99
2023-02-24T16:27:40.879Z,7.91
2023-02-24T16:30:22.314Z,7.97
2023-02-24T16:32:52.895Z,7.84
2023-02-24T16:35:25.833Z,7.81
2023-02-24T16:37:55.859Z,7.87
2023-02-24T16:40:30.821Z,7.86
2023-02-24T16:43:00.934Z,7.87
2023-02-24T16:45:32.443Z,7.73
2023-02-24T16:48:04.679Z,7.77
2023-02-24T16:50:41.709Z,7.82
2023-02-24T16:53:16.661Z,7.73
2023-02-24T16:55:47.257Z,7.71
2023-02-24T16:58:18.252Z,7.74
2023-02-24T17:00:52.559Z,7.75
2023-02-24T17:03:27.106Z,7.90
2023-02-24T17:06:00.035Z,7.79
2023-02-24T17:08:30.288Z,7.83
2023-02-24T17:11:00.427Z,7.79
2023-02-24T17:13:30.424Z,7.72
2023-02-24T17:16:00.448Z,7.80
2023-02-24T17:18:30.536Z,7.74
2023-02-24T17:21:03.210Z,7.70
2023-02-24T17:23:33.227Z,7.73
2023-02-24T17:26:05.050Z,7.63
2023-02-24T17:28:35.070Z,7.59
2023-02-24T17:31:05.492Z,7.50
2023-02-24T17:33:35.595Z,7.48
2023-02-24T17:36:08.979Z,7.58
2023-02-24T17:38:39.102Z,7.71
2023-02-24T17:41:10.641Z,7.65
2023-02-24T17:43:40.710Z,7.70
2023-02-24T17:46:10.854Z,7.61
2023-02-24T17:48:40.889Z,7.51
2023-02-24T17:51:16.943Z,7.46
2023-02-24T17:53:47.278Z,7.41
2023-02-24T17:56:17.312Z,7.37
2023-02-24T17:58:47.281Z,7.36
2023-02-24T18:01:17.397Z,7.47
2023-02-24T18:03:47.526Z,7.49
2023-02-24T18:06:20.339Z,7.41
2023-02-24T18:08:50.588Z,7.32
2023-02-24T18:11:22.746Z,7.33
2023-02-24T18:13:55.164Z,7.15
2023-02-24T18:16:25.649Z,7.10
2023-02-24T18:18:56.197Z,7.09
2023-02-24T18:21:29.365Z,7.05
2023-02-24T18:23:59.524Z,7.05
2023-02-24T18:26:29.904Z,7.07
2023-02-24T18:29:00.197Z,7.06
2023-02-24T18:31:33.664Z,7.02
2023-02-24T18:34:04.080Z,7.03
2023-02-24T18:36:37.124Z,7.04
2023-02-24T18:39:09.108Z,7.04
2023-02-24T18:41:39.072Z,6.99
2023-02-24T18:44:09.305Z,6.94
2023-02-24T18:46:39.686Z,6.89
2023-02-24T18:49:11.822Z,6.85
2023-02-24T18:51:46.022Z,6.82
2023-02-24T18:54:16.537Z,6.83
2023-02-24T18:56:46.673Z,6.77
2023-02-24T18:59:16.766Z,6.75
2023-02-24T19:01:46.991Z,6.71
2023-02-24T19:04:17.705Z,6.74
2023-02-24T19:06:50.957Z,6.81
2023-02-24T19:09:22.480Z,6.84
2023-02-24T19:11:54.250Z,6.85
2023-02-24T19:14:24.302Z,6.92
2023-02-24T19:16:54.327Z,6.90
2023-02-24T19:19:24.489Z,6.92
2023-02-24T19:21:57.068Z,6.96
2023-02-24T19:24:27.234Z,6.97
2023-02-24T19:26:57.729Z,6.89
2023-02-24T19:29:28.135Z,6.93
2023-02-24T19:31:58.393Z,6.90
2023-02-24T19:34:28.512Z,6.87
2023-02-24T19:37:01.124Z,6.91
2023-02-24T19:39:31.153Z,6.89
2023-02-24T19:42:01.495Z,6.85
2023-02-24T19:44:31.503Z,6.83
2023-02-24T19:47:01.620Z,6.88
2023-02-24T19:49:31.639Z,6.89
2023-02-24T19:52:04.371Z,6.91
2023-02-24T19:54:34.410Z,6.91
2023-02-24T19:57:04.696Z,6.95
2023-02-24T19:59:34.749Z,6.97
2023-02-24T20:02:05.064Z,6.89
2023-02-24T20:04:36.418Z,6.89
2023-02-24T20:07:09.112Z,6.90
2023-02-24T20:09:39.107Z,6.90
2023-02-24T20:12:09.672Z,6.92
2023-02-24T20:14:39.652Z,6.91
2023-02-24T20:17:10.089Z,6.81
2023-02-24T20:19:40.186Z,6.83
2023-02-24T20:22:13.842Z,6.85
2023-02-24T20:24:43.859Z,6.76
2023-02-24T20:27:13.875Z,6.77
2023-02-24T20:29:43.930Z,6.77
2023-02-24T20:32:15.172Z,6.82
2023-02-24T20:34:46.251Z,6.78
2023-02-24T20:37:19.216Z,6.77
2023-02-24T20:39:49.272Z,6.74
2023-02-24T20:42:19.276Z,6.70
2023-02-24T20:44:49.429Z,6.69
2023-02-24T20:47:19.477Z,6.77
2023-02-24T20:49:49.805Z,6.68
2023-02-24T20:52:22.376Z,6.62
2023-02-24T20:54:52.594Z,6.65
2023-02-24T20:57:22.689Z,6.65
2023-02-24T21:00:03.008Z,6.67
2023-02-24T21:02:33.725Z,6.68
2023-02-24T21:05:03.852Z,6.66
2023-02-24T21:07:37.091Z,6.68
2023-02-24T21:10:08.302Z,6.72
2023-02-24T21:12:38.421Z,6.73
2023-02-24T21:15:12.322Z,6.67
2023-02-24T21:17:43.180Z,6.70
2023-02-24T21:20:15.896Z,6.64
2023-02-24T21:22:48.446Z,6.47
2023-02-24T21:25:18.523Z,6.35
2023-02-24T21:27:48.879Z,6.27
2023-02-24T21:30:19.093Z,6.09
2023-02-24T21:32:49.174Z,5.77
2023-02-24T21:35:19.471Z,5.12
2023-02-24T21:37:52.272Z,4.63
2023-02-24T21:40:22.626Z,4.43
2023-02-24T21:42:52.656Z,4.27
2023-02-24T21:45:23.030Z,4.22
2023-02-24T21:47:53.403Z,4.14
2023-02-24T21:50:24.734Z,4.07
2023-02-24T21:52:57.316Z,3.97
2023-02-24T21:55:27.644Z,3.92
2023-02-24T21:57:57.717Z,3.86
2023-02-24T22:00:28.678Z,3.80
2023-02-24T22:02:59.309Z,3.76
2023-02-24T22:05:29.991Z,3.68
2023-02-24T22:08:02.553Z,3.61
2023-02-24T22:10:32.536Z,3.58
2023-02-24T22:13:02.572Z,3.49
2023-02-24T22:15:33.104Z,3.45
2023-02-24T22:18:03.215Z,3.37
2023-02-24T22:20:33.364Z,3.28
2023-02-24T22:23:05.960Z,3.26
2023-02-24T22:25:37.931Z,3.31
2023-02-24T22:28:08.389Z,3.21
2023-02-24T22:30:38.379Z,3.10
2023-02-24T22:33:08.397Z,3.12
2023-02-24T22:35:38.721Z,3.12
2023-02-24T22:38:11.279Z,3.10
2023-02-24T22:40:41.315Z,3.09
2023-02-24T22:43:11.400Z,3.11
2023-02-24T22:45:41.537Z,3.13
2023-02-24T22:48:11.590Z,3.09
2023-02-24T22:50:41.594Z,3.06
2023-02-24T22:53:14.214Z,3.03
2023-02-24T22:55:49.149Z,2.99
2023-02-24T22:58:20.234Z,2.94
2023-02-24T23:00:51.144Z,2.95
2023-02-24T23:03:23.785Z,3.04
2023-02-24T23:05:58.211Z,3.01
2023-02-24T23:08:33.102Z,3.07
2023-02-24T23:11:08.126Z,3.13
2023-02-24T23:13:38.404Z,3.14
2023-02-24T23:16:11.857Z,3.08
2023-02-24T23:18:47.117Z,3.06
2023-02-24T23:21:17.775Z,2.99
2023-02-24T23:23:50.389Z,3.01
2023-02-24T23:26:20.904Z,3.02
2023-02-24T23:28:51.184Z,3.03
2023-02-24T23:31:22.929Z,3.18
2023-02-24T23:33:53.229Z,3.20
2023-02-24T23:36:24.390Z,3.23
2023-02-24T23:38:57.119Z,3.16
2023-02-24T23:41:27.224Z,3.16
2023-02-24T23:43:57.463Z,3.16
2023-02-24T23:46:27.576Z,3.13
2023-02-24T23:48:59.415Z,3.13
2023-02-24T23:51:45.781Z,3.13
2023-02-24T23:54:21.014Z,3.12
2023-02-24T23:56:51.237Z,3.11
2023-02-24T23:59:21.318Z,3.15
